Flight Track Log - Related Links

Times and Time Zones

All times are in EST time to prevent confusion due to time zone crossing. See the N9004F flight status page for this flight to view local times or setup timezone preferences in your user account.

Time Position Orientation Groundspeed Altitude Reporting Facility
EST Latitude Longitude Course Direction KTS MPH feet Rate Location/Type
Mon 08:37:12 AM 32.8860 -97.0260 182° South 1,200  Level FlightAware ADS-B
Mon 08:37:45 AM 32.8717 -97.0259 180° South 140 161 2,200 1,800 Climbing FlightAware ADS-B
Mon 08:38:02 AM 32.8557 -97.0244 175° South 154 177 2,700 1,579 Climbing FlightAware ADS-B
Mon 08:38:23 AM 32.8419 -97.0193 163° South 173 199 3,200 1,865 Climbing FlightAware ADS-B
Mon 08:39:16 AM 32.7908 -96.9962 159° South 247 284 5,000 2,164 Climbing FlightAware ADS-B
Mon 08:39:24 AM 32.7842 -96.9894 139° Southeast 258 297 5,400 3,143 Climbing FlightAware ADS-B
Mon 08:39:37 AM 32.7746 -96.9704 121° Southeast 271 312 6,100 3,455 Climbing FlightAware ADS-B
Mon 08:39:57 AM 32.7668 -96.9439 109° East 272 313 7,300 3,214 Climbing FlightAware ADS-B
Mon 08:40:05 AM 32.7655 -96.9311 97° East 281 323 7,600 2,483 Climbing FlightAware ADS-B
Mon 08:40:26 AM 32.7664 -96.9030 88° East 289 333 8,500 2,850 Climbing FlightAware ADS-B
Mon 08:40:45 AM 32.7677 -96.8666 88° East 302 348 9,500 3,000 Climbing FlightAware ADS-B
Mon 08:41:12 AM 32.7745 -96.8186 80° East 317 365 10,800 2,300 Climbing FlightAware ADS-B
Mon 08:41:45 AM 32.7955 -96.7668 64° Northeast 336 387 11,800 -4,189 Climbing FlightAware ADS-B
Mon 08:42:05 AM 32.8056 -96.7412 65° Northeast 362 417 7,100 1,684 Descending FlightAware ADS-B
Mon 08:42:42 AM 32.8370 -96.6636 64° Northeast 387 445 13,400 6,600 Climbing FlightAware ADS-B
Mon 08:43:15 AM 32.8639 -96.5972 64° Northeast 394 453 14,800 2,514 Climbing FlightAware ADS-B
Mon 08:43:56 AM 32.8948 -96.5207 64° Northeast 400 460 16,500 2,561 Climbing FlightAware ADS-B
Mon 08:44:37 AM 32.9327 -96.4415 60° Northeast 403 464 18,300 2,082 Climbing FlightAware ADS-B
Mon 08:45:34 AM 32.9896 -96.3288 59° Northeast 420 483 19,900 1,758 Climbing FlightAware ADS-B
Mon 08:46:16 AM 33.0170 -96.2372 70° East 428 493 21,200 1,590 Climbing FlightAware ADS-B
Mon 08:46:57 AM 33.0407 -96.1406 74° East 440 506 22,100 1,412 Climbing FlightAware ADS-B
Mon 08:47:58 AM 33.0780 -95.9860 74° East 458 527 23,600 1,355 Climbing FlightAware ADS-B
Mon 08:48:30 AM 33.0960 -95.9080 75° East 467 537 24,200 1,343 Climbing FlightAware ADS-B
Mon 08:49:05 AM 33.1147 -95.8294 74° East 469 540 25,100 1,360 Climbing FlightAware ADS-B
Mon 08:49:45 AM 33.1376 -95.7320 74° East 477 549 25,900 1,403 Climbing FlightAware ADS-B
Mon 08:50:22 AM 33.1586 -95.6426 74° East 483 556 26,900 1,642 Climbing FlightAware ADS-B
Mon 08:51:20 AM 33.1990 -95.4710 74° East 499 574 28,500 1,642 Climbing FlightAware ADS-B
Mon 08:51:57 AM 33.2210 -95.3720 75° East 504 580 29,500 1,562 Climbing FlightAware ADS-B
Mon 08:52:33 AM 33.2439 -95.2751 74° East 512 589 30,400 1,343 Climbing FlightAware ADS-B
Mon 08:53:04 AM 33.2634 -95.1896 75° East 521 600 31,000 984 Climbing FlightAware ADS-B
Mon 08:53:34 AM 33.2830 -95.1044 75° East 533 613 31,400 952 Climbing FlightAware ADS-B
Mon 08:54:07 AM 33.3038 -95.0132 75° East 540 621 32,000 1,238 Climbing FlightAware ADS-B
Mon 08:54:37 AM 33.3242 -94.9238 75° East 545 627 32,700 1,600 Climbing FlightAware ADS-B
Mon 08:55:07 AM 33.3443 -94.8352 75° East 544 626 33,600 1,475 Climbing FlightAware ADS-B
Mon 08:55:38 AM 33.3649 -94.7439 75° East 548 631 34,200 1,333 Climbing FlightAware ADS-B
Mon 08:56:10 AM 33.3849 -94.6552 75° East 548 631 35,000 1,452 Climbing FlightAware ADS-B
Mon 08:56:40 AM 33.4053 -94.5638 75° East 551 634 35,700 1,457 Climbing FlightAware ADS-B
Mon 08:57:20 AM 33.4310 -94.4480 75° East 550 633 36,700 1,367 Climbing FlightAware ADS-B
Mon 08:57:59 AM 33.4570 -94.3340 75° East 548 631 37,500 1,263 Climbing FlightAware ADS-B
Mon 08:58:36 AM 33.4810 -94.2250 75° East 545 627 38,300 1,216 Climbing FlightAware ADS-B
Mon 08:59:13 AM 33.5040 -94.1200 75° East 543 625 39,000 545 Climbing FlightAware ADS-B
Mon 08:59:53 AM 33.5400 -94.0080 69° East 536 617 39,000  Level FlightAware ADS-B
Mon 09:00:28 AM 33.5720 -93.9250 65° Northeast 536 617 39,000  Level FlightAware ADS-B
Mon 09:01:12 AM 33.6190 -93.8050 65° Northeast 537 618 39,000  Level FlightAware ADS-B
Mon 09:01:33 AM 33.5950 -93.8640 244° Southwest 537 618 39,000  Level FlightAware ADS-B
Mon 09:02:24 AM 33.6410 -93.7470 65° Northeast 537 618 39,000  Level FlightAware ADS-B
Mon 09:04:23 AM 33.8190 -93.2830 65° Northeast 536 617 39,000  Level FlightAware ADS-B
Mon 09:04:59 AM 33.8570 -93.1840 65° Northeast 536 617 39,000  Level FlightAware ADS-B
Mon 09:06:04 AM 33.9150 -93.0340 65° Northeast 536 617 39,000  Level FlightAware ADS-B
Mon 09:06:37 AM 33.9570 -92.9180 66° East 535 616 39,000  Level FlightAware ADS-B
Mon 09:07:46 AM 34.0280 -92.7300 65° Northeast 533 613 39,000  Level FlightAware ADS-B
Mon 09:09:00 AM 34.1020 -92.5330 66° East 535 616 39,000  Level FlightAware ADS-B
Mon 09:09:40 AM 34.1430 -92.4220 66° East 535 616 39,000  Level FlightAware ADS-B
Mon 09:10:18 AM 34.1820 -92.3160 66° East 534 615 39,000  Level FlightAware ADS-B
Mon 09:10:51 AM 34.2150 -92.2280 66° East 532 612 39,000  Level FlightAware ADS-B
Mon 09:11:34 AM 34.2560 -92.1150 66° East 531 611 39,000  Level FlightAware ADS-B
Mon 09:12:31 AM 34.3080 -91.9730 66° East 531 611 39,000  Level FlightAware ADS-B
Mon 09:13:07 AM 34.3490 -91.8630 66° East 529 609 39,000  Level FlightAware ADS-B
Mon 09:13:42 AM 34.3840 -91.7670 66° East 527 606 39,000  Level FlightAware ADS-B
Mon 09:14:27 AM 34.4290 -91.6420 66° East 526 605 39,000  Level FlightAware ADS-B
Mon 09:15:17 AM 34.4770 -91.5090 66° East 524 603 39,000  Level FlightAware ADS-B
Mon 09:15:50 AM 34.5100 -91.4190 66° East 523 602 39,000  Level FlightAware ADS-B
Mon 09:16:25 AM 34.5440 -91.3240 66° East 524 603 39,000  Level FlightAware ADS-B
Mon 09:17:14 AM 34.5890 -91.1980 67° East 524 603 39,000  Level FlightAware ADS-B
Mon 09:17:54 AM 34.6300 -91.0840 66° East 524 603 39,000  Level FlightAware ADS-B
Mon 09:19:06 AM 34.6980 -90.8910 67° East 524 603 39,000  Level FlightAware ADS-B
Mon 09:19:41 AM 34.7310 -90.7980 67° East 523 602 39,000  Level FlightAware ADS-B
Mon 09:20:26 AM 34.7740 -90.6760 67° East 521 600 39,000  Level FlightAware ADS-B
Mon 09:20:58 AM 34.8040 -90.5910 67° East 520 598 39,000  Level FlightAware ADS-B
Mon 09:21:39 AM 34.8440 -90.4780 67° East 520 598 39,000  Level FlightAware ADS-B
Mon 09:22:08 AM 34.8700 -90.4020 67° East 518 596 39,000  Level FlightAware ADS-B
Mon 09:22:49 AM 34.9090 -90.2900 67° East 518 596 39,000  Level FlightAware ADS-B
Mon 09:23:25 AM 34.9420 -90.1940 67° East 518 596 39,000  Level FlightAware ADS-B
Mon 09:24:04 AM 34.9800 -90.0870 67° East 520 598 39,000  Level FlightAware ADS-B
Mon 09:24:54 AM 35.0200 -89.9620 69° East 520 598 39,000  Level FlightAware ADS-B
Mon 09:25:30 AM 35.0460 -89.8780 69° East 520 598 39,000  Level FlightAware ADS-B
Mon 09:26:06 AM 35.0730 -89.7940 69° East 520 598 39,000  Level FlightAware ADS-B
Mon 09:26:54 AM 35.1080 -89.6820 69° East 520 598 39,000  Level FlightAware ADS-B
Mon 09:27:30 AM 35.1340 -89.5980 69° East 520 598 39,000  Level FlightAware ADS-B
Mon 09:28:18 AM 35.1690 -89.4860 69° East 520 598 39,000  Level FlightAware ADS-B
Mon 09:28:54 AM 35.1960 -89.4020 69° East 520 598 39,000  Level FlightAware ADS-B
Mon 09:29:30 AM 35.2220 -89.3180 69° East 520 598 39,000  Level FlightAware ADS-B
Mon 09:30:07 AM 35.2490 -89.2310 69° East 520 598 39,000  Level FlightAware ADS-B
Mon 09:31:53 AM 35.2240 -88.7390 93° East 525 604 39,000  Level FlightAware ADS-B
Mon 09:32:33 AM 35.2420 -88.6230 79° East 525 604 39,000  Level FlightAware ADS-B
Mon 09:33:08 AM 35.2590 -88.5220 78° East 524 603 39,000  Level FlightAware ADS-B
Mon 09:33:38 AM 35.2730 -88.4340 79° East 522 601 39,000  Level FlightAware ADS-B
Mon 09:34:15 AM 35.2880 -88.3430 79° East 522 601 39,000  Level FlightAware ADS-B
Mon 09:35:03 AM 35.3090 -88.2250 78° East 522 601 39,000  Level FlightAware ADS-B
Mon 09:35:51 AM 35.3290 -88.1070 78° East 522 601 39,000  Level FlightAware ADS-B
Mon 09:36:27 AM 35.3450 -88.0180 78° East 522 601 39,000  Level FlightAware ADS-B
Mon 09:36:59 AM 35.3630 -87.8570 82° East 518 596 39,000  Level FlightAware ADS-B
Mon 09:37:37 AM 35.3800 -87.7460 79° East 517 595 39,000  Level FlightAware ADS-B
Mon 09:38:27 AM 35.4020 -87.6010 79° East 518 596 39,000  Level FlightAware ADS-B
Mon 09:39:09 AM 35.4210 -87.4770 79° East 519 597 39,000  Level FlightAware ADS-B
Mon 09:40:32 AM 35.4567 -87.2374 80° East 521 600 39,000  Level FlightAware ADS-B
Mon 09:41:14 AM 35.4751 -87.1131 80° East 522 601 39,000  Level FlightAware ADS-B
Mon 09:42:20 AM 35.5030 -86.9250 80° East 522 601 39,000  Level FlightAware ADS-B
Mon 09:42:55 AM 35.5180 -86.8220 80° East 520 598 39,000  Level FlightAware ADS-B
Mon 09:43:28 AM 35.5310 -86.7290 80° East 518 596 39,000  Level FlightAware ADS-B
Mon 09:44:09 AM 35.5490 -86.6080 80° East 515 593 39,000  Level FlightAware ADS-B
Mon 09:44:52 AM 35.5660 -86.4840 80° East 513 590 39,000  Level FlightAware ADS-B
Mon 09:45:24 AM 35.5790 -86.3920 80° East 513 590 39,000  Level FlightAware ADS-B
Mon 09:46:29 AM 35.6055 -86.2056 80° East 512 589 39,000  Level FlightAware ADS-B
Mon 09:47:34 AM 35.6312 -86.0195 80° East 512 589 39,000  Level FlightAware ADS-B
Mon 09:48:06 AM 35.6435 -85.9311 80° East 511 588 39,000  Level FlightAware ADS-B
Mon 09:49:05 AM 35.6669 -85.7595 80° East 511 588 39,000  Level FlightAware ADS-B
Mon 09:49:39 AM 35.6801 -85.6620 81° East 511 588 39,000  Level FlightAware ADS-B
Mon 09:50:14 AM 35.6933 -85.5639 81° East 511 588 39,000  Level FlightAware ADS-B
Mon 09:50:45 AM 35.7052 -85.4752 81° East 512 589 39,000 -98 Level FlightAware ADS-B
Mon 09:51:15 AM 35.7167 -85.3877 81° East 513 590 38,900 -682 Descending FlightAware ADS-B
Mon 09:52:13 AM 35.7385 -85.2218 81° East 512 589 38,000 -1,067 Descending FlightAware ADS-B
Mon 09:52:45 AM 35.7507 -85.1305 81° East 512 589 37,300 -1,452 Descending FlightAware ADS-B
Mon 09:53:15 AM 35.7618 -85.0436 81° East 513 590 36,500 -1,672 Descending FlightAware ADS-B
Mon 09:53:46 AM 35.7731 -84.9562 81° East 519 597 35,600 -1,672 Descending FlightAware ADS-B
Mon 09:54:16 AM 35.7843 -84.8683 81° East 521 600 34,800 -1,600 Descending FlightAware ADS-B
Mon 09:54:46 AM 35.7957 -84.7792 81° East 520 598 34,000 -1,478 Descending FlightAware ADS-B
Mon 09:55:25 AM 35.8102 -84.6649 81° East 518 596 33,100 -857 Descending FlightAware ADS-B
Mon 09:55:56 AM 35.8215 -84.5766 81° East 509 586 33,000 -98 Descending FlightAware ADS-B
Mon 09:56:26 AM 35.8324 -84.4891 81° East 507 583 33,000  Level FlightAware ADS-B
Mon 09:56:59 AM 35.8437 -84.3984 81° East 508 585 33,000  Level FlightAware ADS-B
Mon 09:57:29 AM 35.8546 -84.3108 81° East 509 586 33,000  Level FlightAware ADS-B
Mon 09:58:01 AM 35.8658 -84.2185 81° East 507 583 33,000  Level FlightAware ADS-B
Mon 09:58:32 AM 35.8763 -84.1314 82° East 507 583 33,000  Level FlightAware ADS-B
Mon 09:59:04 AM 35.8875 -84.0393 81° East 506 582 33,000  Level FlightAware ADS-B
Mon 09:59:35 AM 35.8982 -83.9498 82° East 507 583 33,000  Level FlightAware ADS-B
Mon 10:00:02 AM 35.9032 -83.8720 85° East 508 585 33,000  Level FlightAware ADS-B
Mon 10:00:18 AM 35.9035 -83.8267 90° East 510 587 33,000 -375 Level FlightAware ADS-B
Mon 10:00:50 AM 35.9020 -83.7336 91° East 509 586 32,700 -774 Descending FlightAware ADS-B
Mon 10:01:20 AM 35.9006 -83.6487 91° East 508 585 32,200 -968 Descending FlightAware ADS-B
Mon 10:01:52 AM 35.8987 -83.5554 91° East 506 582 31,700 -952 Descending FlightAware ADS-B
Mon 10:02:23 AM 35.8970 -83.4669 91° East 500 575 31,200 -968 Descending FlightAware ADS-B
Mon 10:02:54 AM 35.8954 -83.3813 91° East 496 571 30,700 -1,026 Descending FlightAware ADS-B
Mon 10:03:39 AM 35.8927 -83.2516 91° East 492 566 29,900 -927 Descending FlightAware ADS-B
Mon 10:04:44 AM 35.8889 -83.0720 91° East 486 559 29,000 -535 Descending FlightAware ADS-B
Mon 10:05:20 AM 35.8866 -82.9727 92° East 482 555 29,000  Level FlightAware ADS-B
Mon 10:05:58 AM 35.8840 -82.8687 92° East 483 556 29,000 -85 Level FlightAware ADS-B
Mon 10:06:31 AM 35.8817 -82.7785 92° East 484 557 28,900 -2,215 Descending FlightAware ADS-B
Mon 10:07:03 AM 35.8793 -82.6889 92° East 502 578 26,600 -3,968 Descending FlightAware ADS-B
Mon 10:07:33 AM 35.8770 -82.6001 92° East 511 588 24,800 -2,754 Descending FlightAware ADS-B
Mon 10:08:04 AM 35.8746 -82.5129 92° East 477 549 23,800 -2,951 Descending FlightAware ADS-B
Mon 10:08:34 AM 35.8721 -82.4327 92° East 476 548 21,800 -2,852 Descending FlightAware ADS-B
Mon 10:09:05 AM 35.8699 -82.3506 92° East 458 527 20,900 -1,645 Descending FlightAware ADS-B
Mon 10:09:36 AM 35.8677 -82.2715 92° East 441 507 20,100 -1,377 Descending FlightAware ADS-B
Mon 10:10:06 AM 35.8656 -82.1990 92° East 415 478 19,500 -1,770 Descending FlightAware ADS-B
Mon 10:10:37 AM 35.8635 -82.1296 92° East 386 444 18,300 -2,852 Descending FlightAware ADS-B
Mon 10:11:07 AM 35.8613 -82.0620 92° East 380 437 16,600 -2,231 Descending FlightAware ADS-B
Mon 10:11:55 AM 35.8496 -81.9618 98° East 376 433 15,400 -1,185 Descending FlightAware ADS-B
Mon 10:12:28 AM 35.8230 -81.9180 127° Southeast 365 420 15,000 -957 Descending FlightAware ADS-B
Mon 10:13:04 AM 35.7800 -81.8500 128° Southeast 357 411 14,300 -1,040 Descending FlightAware ADS-B
Mon 10:13:43 AM 35.7410 -81.7900 129° Southeast 348 400 13,700 -1,000 Descending FlightAware ADS-B
Mon 10:14:16 AM 35.7070 -81.7370 128° Southeast 348 400 13,100 -1,352 Descending FlightAware ADS-B
Mon 10:14:54 AM 35.6690 -81.6790 129° Southeast 345 397 12,100 -1,161 Descending FlightAware ADS-B
Mon 10:15:18 AM 35.6450 -81.6420 129° Southeast 343 395 11,900 -656 Descending FlightAware ADS-B
Mon 10:15:58 AM 35.6050 -81.5810 129° Southeast 331 381 11,400 -375 Descending FlightAware ADS-B
Mon 10:16:38 AM 35.5690 -81.5250 128° Southeast 305 351 11,400  Level FlightAware ADS-B
Mon 10:17:13 AM 35.5380 -81.4780 129° Southeast 305 351 11,400  Level FlightAware ADS-B
Mon 10:17:41 AM 35.5130 -81.4400 129° Southeast 304 350 11,400 -462 Level FlightAware ADS-B
Mon 10:18:18 AM 35.4800 -81.3910 130° Southeast 302 348 10,900 -1,120 Descending FlightAware ADS-B
Mon 10:18:56 AM 35.4490 -81.3430 128° Southeast 298 343 10,000 -1,120 Descending FlightAware ADS-B
Mon 10:19:33 AM 35.4150 -81.2920 129° Southeast 298 343 9,500 -759 Descending FlightAware ADS-B
Mon 10:20:15 AM 35.3780 -81.2380 130° Southeast 296 341 9,000 -684 Descending FlightAware ADS-B
Mon 10:20:52 AM 35.3470 -81.1930 130° Southeast 291 335 8,600 -486 Descending FlightAware ADS-B
Mon 10:21:29 AM 35.3140 -81.1450 130° Southeast 292 336 8,400 -146 Descending FlightAware ADS-B
Mon 10:22:14 AM 35.2790 -81.0930 129° Southeast 250 288 8,400  Level FlightAware ADS-B
Mon 10:22:47 AM 35.2450 -81.0710 152° Southeast 248 285 8,400 -553 Level FlightAware ADS-B
Mon 10:23:30 AM 35.1980 -81.0670 176° South 240 276 7,700 -1,310 Descending FlightAware ADS-B
Mon 10:24:14 AM 35.1490 -81.0620 175° South 232 267 6,500 -1,575 Descending FlightAware ADS-B
Mon 10:24:50 AM 35.1100 -81.0590 176° South 233 268 5,600 -825 Descending FlightAware ADS-B
Mon 10:25:34 AM 35.0630 -81.0550 176° South 235 270 5,400 -150 Descending FlightAware ADS-B
Mon 10:26:10 AM 35.0250 -81.0510 175° South 230 265 5,400  Level FlightAware ADS-B
Mon 10:26:50 AM 34.9840 -81.0480 177° South 209 241 5,400 -583 Level FlightAware ADS-B
Mon 10:27:22 AM 34.9530 -81.0450 175° South 215 247 4,700 -845 Descending FlightAware ADS-B
Mon 10:28:01 AM 34.9290 -81.0170 136° Southeast 192 221 4,400 -200 Descending FlightAware ADS-B
Mon 10:28:52 AM 34.9430 -80.9720 69° East 178 205 4,400  Level FlightAware ADS-B
Mon 10:29:22 AM 34.9640 -80.9620 21° North 160 184 4,400 -560 Level FlightAware ADS-B
Mon 10:30:07 AM 34.9960 -80.9500 17° North 161 185 3,700 -750 Descending FlightAware ADS-B
Mon 10:30:42 AM 35.0220 -80.9500 360° North 166 191 3,400 -411 Descending FlightAware ADS-B
Mon 10:31:20 AM 35.0520 -80.9530 355° North 166 191 3,200 -618 Descending FlightAware ADS-B
Mon 10:31:50 AM 35.0770 -80.9550 356° North 166 191 2,700 -943 Descending FlightAware ADS-B
Mon 10:32:30 AM 35.1040 -80.9570 357° North 146 168 2,100 -800 Descending FlightAware ADS-B
Mon 10:33:20 AM 35.1360 -80.9600 356° North 136 157 1,500 -714 Descending FlightAware ADS-B
Mon 10:33:54 AM 35.1580 -80.9620 356° North 134 154 1,100 -771 Descending FlightAware ADS-B
Mon 10:34:30 AM 35.1800 -80.9630 358° North 138 159 600 -806 Descending FlightAware ADS-B
Mon 10:35:01 AM 35.2000 -80.9650 355° North 132 152 200 -774 Descending FlightAware ADS-B

Login

Don't have an account? Register now (free) for customized features, flight alerts, and more!